createdAt,value
2019-02-02T00:02:51.957Z,"    0"
2019-02-02T00:07:48.197Z,"    0"
2019-02-02T00:12:43.615Z,"    0"
2019-02-02T00:17:39.242Z,"    0"
2019-02-02T00:22:34.781Z,"    0"
2019-02-02T00:27:41.074Z,"    0"
2019-02-02T00:32:29.974Z,"    0"
2019-02-02T00:37:26.511Z,"    0"
2019-02-02T00:42:21.772Z,"    0"
2019-02-02T00:47:17.387Z,"    0"
2019-02-02T00:52:13.972Z,"    0"
2019-02-02T00:57:09.061Z,"    0"
2019-02-02T01:02:04.516Z,"    0"
2019-02-02T01:07:00.073Z,"    0"
2019-02-02T01:11:56.686Z,"    0"
2019-02-02T01:16:51.782Z,"    0"
2019-02-02T01:21:48.433Z,"    0"
2019-02-02T01:26:43.595Z,"    0"
2019-02-02T01:31:39.205Z,"    0"
2019-02-02T01:36:34.811Z,"    0"
2019-02-02T01:41:30.922Z,"    0"
2019-02-02T01:46:26.338Z,"    0"
2019-02-02T01:51:21.928Z,"    0"
2019-02-02T01:56:17.558Z,"    0"
2019-02-02T02:01:14.569Z,"    0"
2019-02-02T02:06:09.761Z,"    0"
2019-02-02T02:11:05.210Z,"    0"
2019-02-02T02:16:00.827Z,"    0"
2019-02-02T02:20:56.446Z,"    0"
2019-02-02T02:25:51.916Z,"    0"
2019-02-02T02:30:47.726Z,"    0"
2019-02-02T02:35:44.216Z,"    0"
2019-02-02T02:40:39.628Z,"    0"
2019-02-02T02:45:35.288Z,"    0"
2019-02-02T02:50:31.302Z,"    0"
2019-02-02T02:55:26.815Z,"    0"
2019-02-02T03:00:23.391Z,"    0"
2019-02-02T03:05:18.934Z,"    0"
2019-02-02T03:10:15.611Z,"    0"
2019-02-02T03:15:10.991Z,"    0"
2019-02-02T03:20:06.391Z,"    0"
2019-02-02T03:25:03.258Z,"    0"
2019-02-02T03:29:58.749Z,"    0"
2019-02-02T03:34:54.236Z,"    0"
2019-02-02T03:39:49.737Z,"    0"
2019-02-02T03:44:46.188Z,"    0"
2019-02-02T03:49:41.748Z,"    0"
2019-02-02T03:54:37.576Z,"    0"
2019-02-02T03:59:33.280Z,"    0"
2019-02-02T04:04:28.770Z,"    0"
2019-02-02T04:09:25.157Z,"    0"
2019-02-02T04:14:20.812Z,"    0"
2019-02-02T04:19:17.199Z,"    0"
2019-02-02T04:24:12.806Z,"    0"
2019-02-02T04:29:17.587Z,"    0"
2019-02-02T04:34:07.385Z,"    0"
2019-02-02T04:39:02.871Z,"    0"
2019-02-02T04:43:58.378Z,"    0"
2019-02-02T04:48:53.793Z,"    0"
2019-02-02T04:53:48.966Z,"    0"
2019-02-02T04:58:44.510Z,"    0"
2019-02-02T05:03:40.141Z,"    0"
2019-02-02T05:08:35.696Z,"    0"
2019-02-02T05:13:31.209Z,"    0"
2019-02-02T05:18:27.089Z,"    0"
2019-02-02T05:23:22.692Z,"    0"
2019-02-02T05:28:18.268Z,"    0"
2019-02-02T05:33:13.735Z,"    0"
2019-02-02T05:38:10.271Z,"    0"
2019-02-02T05:43:05.648Z,"    0"
2019-02-02T05:48:01.963Z,"    0"
2019-02-02T05:52:58.398Z,"    0"
2019-02-02T05:57:54.775Z,"    0"
2019-02-02T06:02:51.043Z,"    0"
2019-02-02T06:07:46.980Z,"    0"
2019-02-02T06:12:42.486Z,"    0"
2019-02-02T06:17:38.046Z,"    0"
2019-02-02T06:22:34.613Z,"    0"
2019-02-02T06:27:29.898Z,"    0"
2019-02-02T06:32:25.405Z,"    0"
2019-02-02T06:37:22.119Z,"    0"
2019-02-02T06:42:17.451Z,"    0"
2019-02-02T06:47:12.908Z,"    0"
2019-02-02T06:52:08.368Z,"    0"
2019-02-02T06:57:03.974Z,"    0"
2019-02-02T07:02:01.428Z,"    0"
2019-02-02T07:06:57.306Z,"    0"
2019-02-02T07:11:53.947Z,"    0"
2019-02-02T07:16:50.426Z,"    5"
2019-02-02T07:21:46.804Z,"    5"
2019-02-02T07:26:42.027Z,"    5"
2019-02-02T07:31:37.524Z,"    5"
2019-02-02T07:36:33.078Z,"   10"
2019-02-02T07:41:29.782Z,"   10"
2019-02-02T07:46:25.563Z,"   25"
2019-02-02T07:51:21.171Z,"   35"
2019-02-02T07:56:16.925Z,"   35"
2019-02-02T08:01:12.441Z,"   35"
2019-02-02T08:06:08.054Z,"   40"
2019-02-02T08:11:03.577Z,"   40"
2019-02-02T08:15:58.904Z,"   40"
2019-02-02T08:20:55.443Z,"   40"
2019-02-02T08:25:50.718Z,"   50"
2019-02-02T08:30:52.408Z,"   65"
2019-02-02T08:35:45.815Z,"   80"
2019-02-02T08:40:41.719Z,"   65"
2019-02-02T08:45:37.316Z,"   60"
2019-02-02T08:50:33.478Z,"   60"
2019-02-02T08:55:29.272Z,"   50"
2019-02-02T09:00:24.729Z,"   45"
2019-02-02T09:05:20.972Z,"   50"
2019-02-02T09:10:16.507Z,"   55"
2019-02-02T09:15:12.697Z,"   65"
2019-02-02T09:20:08.043Z,"   70"
2019-02-02T09:25:04.771Z,"   75"
2019-02-02T09:30:00.468Z,"   85"
2019-02-02T09:34:56.024Z,"   90"
2019-02-02T09:39:52.483Z,"  115"
2019-02-02T09:44:47.813Z,"  120"
2019-02-02T09:49:43.571Z,"  105"
2019-02-02T09:54:39.376Z,"  100"
2019-02-02T09:59:35.432Z,"   80"
2019-02-02T10:04:30.539Z,"   80"
2019-02-02T10:09:25.876Z,"  110"
2019-02-02T10:14:21.685Z,"  110"
2019-02-02T10:19:17.292Z,"  100"
2019-02-02T10:24:13.064Z,"   90"
2019-02-02T10:29:09.631Z,"   75"
2019-02-02T10:34:04.778Z,"   90"
2019-02-02T10:39:00.410Z,"  100"
2019-02-02T10:43:57.204Z,"  100"
2019-02-02T10:48:53.373Z,"  110"
2019-02-02T10:53:50.535Z,"  135"
2019-02-02T10:58:46.968Z,"  140"
2019-02-02T11:03:42.632Z,"  125"
2019-02-02T11:08:39.413Z,"  115"
2019-02-02T11:13:35.639Z,"   90"
2019-02-02T11:18:31.616Z,"   70"
2019-02-02T11:23:27.115Z,"   75"
2019-02-02T11:28:23.835Z,"   70"
2019-02-02T11:33:19.235Z,"   75"
2019-02-02T11:38:15.582Z,"   90"
2019-02-02T11:43:11.094Z,"   90"
2019-02-02T11:48:06.847Z,"   80"
2019-02-02T11:53:02.562Z,"   90"
2019-02-02T11:57:58.041Z,"   85"
2019-02-02T12:02:53.359Z,"   90"
2019-02-02T12:07:50.032Z,"   80"
2019-02-02T12:12:45.199Z,"   75"
2019-02-02T12:17:41.191Z,"   75"
2019-02-02T12:22:36.722Z,"   70"
2019-02-02T12:27:32.201Z,"   60"
2019-02-02T12:32:28.821Z,"   55"
2019-02-02T12:37:23.927Z,"   50"
2019-02-02T12:42:20.217Z,"   45"
2019-02-02T12:47:15.746Z,"   50"
2019-02-02T12:52:12.110Z,"   55"
2019-02-02T12:57:07.772Z,"   55"
2019-02-02T13:02:03.444Z,"   90"
2019-02-02T13:06:59.096Z,"  110"
2019-02-02T13:11:56.292Z,"  120"
2019-02-02T13:16:51.331Z,"  105"
2019-02-02T13:21:48.023Z,"   90"
2019-02-02T13:26:44.421Z,"   95"
2019-02-02T13:31:39.985Z,"   85"
2019-02-02T13:36:36.439Z,"   65"
2019-02-02T13:41:33.233Z,"   50"
2019-02-02T13:46:28.330Z,"   40"
2019-02-02T13:51:24.756Z,"   40"
2019-02-02T13:56:20.145Z,"   40"
2019-02-02T14:01:15.749Z,"   35"
2019-02-02T14:06:12.098Z,"   35"
2019-02-02T14:11:07.326Z,"   35"
2019-02-02T14:16:03.699Z,"   35"
2019-02-02T14:20:59.179Z,"   35"
2019-02-02T14:25:54.537Z,"   45"
2019-02-02T14:30:53.565Z,"   45"
2019-02-02T14:35:52.328Z,"   40"
2019-02-02T14:40:48.194Z,"   35"
2019-02-02T14:45:43.491Z,"   35"
2019-02-02T14:50:39.231Z,"   30"
2019-02-02T14:55:34.954Z,"   25"
2019-02-02T15:00:30.589Z,"   25"
2019-02-02T15:05:26.237Z,"   20"
2019-02-02T15:10:21.686Z,"   20"
2019-02-02T15:15:17.098Z,"   20"
2019-02-02T15:20:13.829Z,"   15"
2019-02-02T15:25:10.052Z,"   15"
2019-02-02T15:30:06.327Z,"   15"
2019-02-02T15:35:02.767Z,"   10"
2019-02-02T15:39:59.579Z,"   10"
2019-02-02T15:44:54.849Z,"    5"
2019-02-02T15:49:50.352Z,"    5"
2019-02-02T15:54:45.972Z,"    5"
2019-02-02T15:59:41.448Z,"    5"
2019-02-02T16:04:36.985Z,"    0"
2019-02-02T16:09:32.512Z,"    0"
2019-02-02T16:14:29.129Z,"    0"
2019-02-02T16:19:26.187Z,"    0"
2019-02-02T16:24:21.183Z,"    0"
2019-02-02T16:29:16.662Z,"    0"
2019-02-02T16:34:13.303Z,"    0"
2019-02-02T16:39:08.672Z,"    0"
2019-02-02T16:44:04.206Z,"    0"
2019-02-02T16:48:59.691Z,"    0"
2019-02-02T16:53:55.286Z,"    0"
2019-02-02T16:58:50.778Z,"    0"
2019-02-02T17:03:46.346Z,"    0"
2019-02-02T17:08:43.120Z,"    0"
2019-02-02T17:13:38.466Z,"    0"
2019-02-02T17:18:33.902Z,"    0"
2019-02-02T17:23:29.412Z,"    0"
2019-02-02T17:28:24.813Z,"    0"
2019-02-02T17:33:20.416Z,"    0"
2019-02-02T17:38:16.031Z,"    0"
2019-02-02T17:43:12.557Z,"    0"
2019-02-02T17:48:07.947Z,"    0"
2019-02-02T17:53:04.494Z,"    0"
2019-02-02T17:57:59.799Z,"    0"
2019-02-02T18:02:56.444Z,"    0"
2019-02-02T18:07:52.387Z,"    0"
2019-02-02T18:12:48.066Z,"    0"
2019-02-02T18:17:44.268Z,"    0"
2019-02-02T18:22:39.894Z,"    0"
2019-02-02T18:27:35.532Z,"    0"
2019-02-02T18:32:31.759Z,"    0"
2019-02-02T18:37:27.575Z,"    0"
2019-02-02T18:42:23.222Z,"    0"
2019-02-02T18:47:19.939Z,"    0"
2019-02-02T18:52:15.204Z,"    0"
2019-02-02T18:57:10.620Z,"    0"
2019-02-02T19:02:06.122Z,"    0"
2019-02-02T19:07:02.352Z,"    0"
2019-02-02T19:11:57.650Z,"    0"
2019-02-02T19:17:00.682Z,"    0"
2019-02-02T19:21:52.758Z,"    0"
2019-02-02T19:26:49.420Z,"    0"
2019-02-02T19:31:44.679Z,"    0"
2019-02-02T19:36:39.783Z,"    0"
2019-02-02T19:41:35.809Z,"    0"
2019-02-02T19:46:31.399Z,"    0"
2019-02-02T19:51:27.076Z,"    0"
2019-02-02T19:56:22.685Z,"    0"
2019-02-02T20:01:18.272Z,"    0"
2019-02-02T20:06:14.727Z,"    0"
2019-02-02T20:11:11.017Z,"    0"
2019-02-02T20:16:06.971Z,"    0"
2019-02-02T20:21:03.171Z,"    0"
2019-02-02T20:25:59.546Z,"    0"
2019-02-02T20:30:55.129Z,"    0"
2019-02-02T20:35:51.620Z,"    0"
2019-02-02T20:40:47.929Z,"    0"
2019-02-02T20:45:42.971Z,"    0"
2019-02-02T20:50:38.563Z,"    0"
2019-02-02T20:55:35.172Z,"    0"
2019-02-02T21:00:31.517Z,"    0"
2019-02-02T21:05:26.407Z,"    0"
2019-02-02T21:10:22.968Z,"    0"
2019-02-02T21:15:19.274Z,"    0"
2019-02-02T21:20:14.467Z,"    0"
2019-02-02T21:25:10.171Z,"    0"
2019-02-02T21:30:05.753Z,"    0"
2019-02-02T21:35:02.243Z,"    0"
2019-02-02T21:39:57.988Z,"    0"
2019-02-02T21:44:54.311Z,"    0"
2019-02-02T21:49:50.673Z,"    0"
2019-02-02T21:54:47.331Z,"    0"
2019-02-02T21:59:42.677Z,"    0"
2019-02-02T22:04:38.157Z,"    0"
2019-02-02T22:09:33.890Z,"    0"
2019-02-02T22:14:29.105Z,"    0"
2019-02-02T22:19:24.673Z,"    0"
2019-02-02T22:24:20.273Z,"    0"
2019-02-02T22:29:16.890Z,"    0"
2019-02-02T22:34:13.281Z,"    0"
2019-02-02T22:39:08.378Z,"    0"
2019-02-02T22:44:04.604Z,"    0"
2019-02-02T22:49:00.129Z,"    0"
2019-02-02T22:53:55.722Z,"    0"
2019-02-02T22:58:52.380Z,"    0"
2019-02-02T23:03:48.123Z,"    0"
2019-02-02T23:08:44.766Z,"    0"
2019-02-02T23:13:40.228Z,"    0"
2019-02-02T23:18:35.920Z,"    0"
2019-02-02T23:23:32.487Z,"    0"
2019-02-02T23:28:28.785Z,"    0"
2019-02-02T23:33:24.058Z,"    0"
2019-02-02T23:38:19.991Z,"    0"
2019-02-02T23:43:16.536Z,"    0"
2019-02-02T23:48:11.759Z,"    0"
2019-02-02T23:53:07.478Z,"    0"
2019-02-02T23:58:03.095Z,"    0"
